Time;durP1;ratioP1;P1;durP2;ratioP2;P2;SDS_P1;SDS_P2;PMS_P1;PMS_P2;Temp;Humidity;BMP_temperature;BMP_pressure;BME280_temperature;BME280_humidity;BME280_pressure;Samples;Min_cycle;Max_cycle;Signal;HPM_P1;HPM_P2
2020/12/10 00:01:53;;;;;;;51.90;22.08;;;4.00;99.90;;;;;;5051539;28;20033;-66
2020/12/10 00:04:19;;;;;;;46.42;22.33;;;4.00;99.90;;;;;;5051291;28;20032;-66
2020/12/10 00:06:45;;;;;;;50.35;22.13;;;4.10;99.90;;;;;;5052979;28;20071;-67
2020/12/10 00:09:10;;;;;;;48.17;21.05;;;4.10;99.90;;;;;;5053221;28;20808;-66
2020/12/10 00:11:37;;;;;;;44.95;20.98;;;4.20;99.90;;;;;;5053072;28;20033;-67
2020/12/10 00:14:04;;;;;;;49.00;21.63;;;4.10;99.90;;;;;;5053741;28;20033;-67
2020/12/10 00:16:30;;;;;;;48.45;21.67;;;4.10;99.90;;;;;;5053791;28;20125;-66
2020/12/10 00:18:56;;;;;;;43.22;20.20;;;4.00;99.90;;;;;;5053437;28;20033;-66
2020/12/10 00:21:25;;;;;;;39.92;19.23;;;4.10;99.90;;;;;;5054236;28;20021;-67
2020/12/10 00:23:50;;;;;;;43.55;19.30;;;4.00;99.90;;;;;;5053795;28;20053;-67
2020/12/10 00:26:20;;;;;;;40.75;18.15;;;4.00;99.90;;;;;;5054043;28;20009;-66
2020/12/10 00:28:46;;;;;;;42.08;18.95;;;4.00;99.90;;;;;;5052345;28;20104;-66
2020/12/10 00:31:11;;;;;;;38.97;18.65;;;4.00;99.90;;;;;;5054276;28;20025;-66
2020/12/10 00:33:37;;;;;;;32.45;18.73;;;4.00;99.90;;;;;;5064142;28;20029;-66
2020/12/10 00:36:03;;;;;;;39.35;18.98;;;3.90;99.90;;;;;;5060201;28;20033;-65
2020/12/10 00:38:29;;;;;;;36.17;18.88;;;3.90;99.90;;;;;;5047325;28;20043;-65
2020/12/10 00:40:55;;;;;;;39.13;18.88;;;3.90;99.90;;;;;;5043034;28;20025;-66
2020/12/10 00:43:20;;;;;;;38.65;18.23;;;3.90;99.90;;;;;;5051975;28;20028;-65
2020/12/10 00:45:47;;;;;;;32.58;17.02;;;3.90;99.90;;;;;;5042293;28;20454;-66
2020/12/10 00:48:13;;;;;;;32.22;17.15;;;3.90;99.90;;;;;;5050324;28;20109;-66
2020/12/10 00:50:38;;;;;;;32.08;16.80;;;3.80;99.90;;;;;;5052131;28;20446;-66
2020/12/10 00:53:04;;;;;;;35.97;17.25;;;3.80;99.90;;;;;;5050211;28;20125;-66
2020/12/10 00:55:29;;;;;;;37.35;17.60;;;3.80;99.90;;;;;;5049165;28;20045;-65
2020/12/10 00:57:55;;;;;;;36.78;16.20;;;3.80;99.90;;;;;;5045535;28;20037;-66
2020/12/10 01:00:20;;;;;;;30.33;16.52;;;3.80;99.90;;;;;;5047808;28;20037;-66
2020/12/10 01:02:46;;;;;;;31.80;15.95;;;3.80;99.90;;;;;;5044600;28;20036;-65
2020/12/10 01:05:11;;;;;;;30.02;15.40;;;3.80;99.90;;;;;;5052811;28;20075;-66
2020/12/10 01:07:37;;;;;;;26.60;14.05;;;3.80;99.90;;;;;;5049145;28;20057;-66
2020/12/10 01:10:04;;;;;;;33.25;16.30;;;3.80;99.90;;;;;;5046119;28;20036;-65
2020/12/10 01:12:30;;;;;;;33.67;17.13;;;3.80;99.90;;;;;;5040938;28;20118;-66
2020/12/10 01:14:55;;;;;;;34.17;16.33;;;3.80;99.90;;;;;;5043776;28;20416;-66
2020/12/10 01:17:21;;;;;;;32.25;15.77;;;3.80;99.90;;;;;;5039387;28;20571;-66
2020/12/10 01:19:47;;;;;;;31.80;16.45;;;3.80;99.90;;;;;;5050047;28;20033;-66
2020/12/10 01:22:12;;;;;;;26.50;14.68;;;3.80;99.90;;;;;;5052314;28;20035;-65
2020/12/10 01:24:38;;;;;;;30.10;14.98;;;3.80;99.90;;;;;;5050817;28;20230;-65
2020/12/10 01:27:04;;;;;;;30.05;14.82;;;3.90;99.90;;;;;;5051574;28;20029;-65
2020/12/10 01:29:29;;;;;;;30.83;15.73;;;3.90;99.90;;;;;;5051352;28;20032;-66
2020/12/10 01:31:55;;;;;;;27.50;14.27;;;3.80;99.90;;;;;;5050736;28;20075;-65
2020/12/10 01:34:20;;;;;;;28.35;14.80;;;3.80;99.90;;;;;;5043333;28;20386;-65
2020/12/10 01:36:46;;;;;;;30.92;13.88;;;3.80;99.90;;;;;;5046472;28;20066;-65
2020/12/10 01:39:12;;;;;;;28.58;13.77;;;3.90;99.90;;;;;;5050778;28;20438;-66
2020/12/10 01:41:37;;;;;;;24.05;13.30;;;3.80;99.90;;;;;;5052914;28;20067;-65
2020/12/10 01:44:08;;;;;;;25.50;12.27;;;3.70;99.90;;;;;;5047779;28;20044;-65
2020/12/10 01:46:35;;;;;;;31.13;14.23;;;3.70;99.90;;;;;;5043984;28;20119;-66
2020/12/10 01:49:02;;;;;;;28.17;13.98;;;3.70;99.90;;;;;;5052270;28;20024;-66
2020/12/10 01:51:29;;;;;;;23.48;12.70;;;3.70;99.90;;;;;;5053163;28;20097;-66
2020/12/10 01:53:55;;;;;;;26.05;13.15;;;3.70;99.90;;;;;;5053057;28;20040;-65
2020/12/10 01:56:21;;;;;;;22.83;12.88;;;3.60;99.90;;;;;;5048711;28;20128;-66
2020/12/10 01:58:46;;;;;;;23.85;12.25;;;3.70;99.90;;;;;;5051527;28;20113;-65
2020/12/10 02:01:13;;;;;;;29.42;13.57;;;3.70;99.90;;;;;;5052041;28;20441;-66
2020/12/10 02:03:39;;;;;;;28.77;13.73;;;3.60;99.90;;;;;;5051216;28;20033;-65
2020/12/10 02:06:04;;;;;;;28.48;12.82;;;3.60;99.90;;;;;;5049523;28;20082;-67
2020/12/10 02:08:30;;;;;;;28.80;13.10;;;3.60;99.90;;;;;;5052553;28;20025;-66
2020/12/10 02:10:55;;;;;;;25.77;14.13;;;3.70;99.90;;;;;;5038010;28;20044;-66
2020/12/10 02:13:21;;;;;;;25.00;12.13;;;3.70;99.90;;;;;;5059934;28;20044;-64
2020/12/10 02:15:48;;;;;;;23.20;12.15;;;3.70;99.90;;;;;;5040724;28;20120;-66
2020/12/10 02:18:13;;;;;;;20.90;11.63;;;3.70;99.90;;;;;;5040253;28;20126;-67
2020/12/10 02:20:39;;;;;;;28.60;13.10;;;3.80;99.90;;;;;;5050572;28;20483;-65
2020/12/10 02:23:06;;;;;;;26.65;12.60;;;3.70;99.90;;;;;;5049950;28;20434;-65
2020/12/10 02:25:33;;;;;;;22.80;11.40;;;3.70;99.90;;;;;;5050475;28;20037;-66
2020/12/10 02:28:05;;;;;;;24.00;12.38;;;3.70;99.90;;;;;;5047761;28;20047;-66
2020/12/10 02:30:31;;;;;;;22.23;12.40;;;3.70;99.90;;;;;;5048581;28;20548;-66
2020/12/10 02:32:58;;;;;;;24.90;12.10;;;3.70;99.90;;;;;;5035971;28;20100;-66
2020/12/10 02:35:26;;;;;;;25.60;11.38;;;3.70;99.90;;;;;;5048320;28;20033;-65
2020/12/10 02:37:59;;;;;;;23.58;11.98;;;3.70;99.90;;;;;;5045630;28;20078;-66
2020/12/10 02:40:26;;;;;;;23.95;11.95;;;3.70;99.90;;;;;;5040269;28;22136;-66
2020/12/10 02:42:52;;;;;;;22.85;11.77;;;3.60;99.90;;;;;;5045382;28;20040;-66
2020/12/10 02:45:19;;;;;;;27.17;12.88;;;3.70;99.90;;;;;;5045047;28;20555;-64
2020/12/10 02:47:46;;;;;;;23.05;11.68;;;3.70;99.90;;;;;;5050472;28;20037;-66
2020/12/10 02:50:12;;;;;;;25.70;13.23;;;3.70;99.90;;;;;;5049724;28;20052;-65
2020/12/10 02:52:37;;;;;;;23.85;11.82;;;3.60;99.90;;;;;;5045511;28;20021;-66
2020/12/10 02:55:03;;;;;;;23.20;11.18;;;3.60;99.90;;;;;;5031398;28;20035;-65
2020/12/10 02:57:29;;;;;;;23.50;11.25;;;3.60;99.90;;;;;;5050895;28;20055;-65
2020/12/10 02:59:55;;;;;;;25.50;11.65;;;3.60;99.90;;;;;;5051332;28;20029;-65
2020/12/10 03:02:20;;;;;;;22.27;11.80;;;3.60;99.90;;;;;;5051424;28;20017;-66
2020/12/10 03:04:46;;;;;;;19.92;10.20;;;3.50;99.90;;;;;;5041318;28;20025;-67
2020/12/10 03:07:11;;;;;;;25.25;11.88;;;3.60;99.90;;;;;;5047476;28;20033;-65
2020/12/10 03:09:37;;;;;;;21.85;11.27;;;3.60;99.90;;;;;;5050537;28;20076;-65
2020/12/10 03:12:02;;;;;;;30.65;12.77;;;3.60;99.90;;;;;;5053512;28;20253;-67
2020/12/10 03:14:28;;;;;;;23.48;11.25;;;3.60;99.90;;;;;;5072983;28;20487;-66
2020/12/10 03:16:53;;;;;;;19.77;10.10;;;3.60;99.90;;;;;;5063984;28;20036;-66
2020/12/10 03:19:19;;;;;;;23.60;11.80;;;3.50;99.90;;;;;;5069758;28;20501;-66
2020/12/10 03:21:44;;;;;;;23.60;11.20;;;3.60;99.90;;;;;;5070049;28;20513;-66
2020/12/10 03:24:10;;;;;;;23.85;11.80;;;3.50;99.90;;;;;;5071870;28;20028;-65
2020/12/10 03:26:35;;;;;;;21.73;11.60;;;3.50;99.90;;;;;;5072544;28;20317;-66
2020/12/10 03:29:01;;;;;;;24.92;11.02;;;3.50;99.90;;;;;;5064619;28;20110;-65
2020/12/10 03:31:26;;;;;;;21.88;11.32;;;3.50;99.90;;;;;;5075579;28;20078;-66
2020/12/10 03:33:52;;;;;;;21.50;10.35;;;3.60;99.90;;;;;;5073845;28;20031;-65
2020/12/10 03:36:17;;;;;;;21.98;10.85;;;3.50;99.90;;;;;;5071096;28;20490;-65
2020/12/10 03:38:43;;;;;;;25.02;11.60;;;3.50;99.90;;;;;;5074808;28;20048;-65
2020/12/10 03:41:10;;;;;;;26.92;11.73;;;3.50;99.90;;;;;;5074918;28;20056;-65
2020/12/10 03:43:36;;;;;;;25.65;11.73;;;3.50;99.90;;;;;;5070300;28;20505;-66
2020/12/10 03:46:01;;;;;;;34.15;12.52;;;3.50;99.90;;;;;;5073688;28;20028;-64
2020/12/10 03:48:27;;;;;;;32.15;12.63;;;3.40;99.90;;;;;;5073233;28;20069;-65
2020/12/10 03:50:52;;;;;;;28.10;13.13;;;3.40;99.90;;;;;;5057765;28;20029;-65
2020/12/10 03:53:18;;;;;;;24.92;12.30;;;3.40;99.90;;;;;;5067291;28;20039;-66
2020/12/10 03:55:43;;;;;;;27.00;12.65;;;3.40;99.90;;;;;;5062906;28;20050;-66
2020/12/10 03:58:09;;;;;;;32.33;13.48;;;3.30;99.90;;;;;;5060642;28;20033;-67
2020/12/10 04:00:34;;;;;;;29.65;14.15;;;3.30;99.90;;;;;;5058429;28;20021;-64
2020/12/10 04:03:00;;;;;;;29.23;13.73;;;3.20;99.90;;;;;;5047201;28;20033;-65
2020/12/10 04:05:26;;;;;;;27.50;13.35;;;3.20;99.90;;;;;;5072939;28;20384;-65
2020/12/10 04:07:52;;;;;;;27.15;13.85;;;3.10;99.90;;;;;;5064214;28;20392;-64
2020/12/10 04:10:18;;;;;;;25.25;12.68;;;3.10;99.90;;;;;;5072331;28;20063;-64
2020/12/10 04:12:43;;;;;;;29.45;13.25;;;3.10;99.90;;;;;;5048320;28;20045;-64
2020/12/10 04:15:09;;;;;;;26.48;12.77;;;3.10;99.90;;;;;;5034331;28;20467;-64
2020/12/10 04:17:34;;;;;;;28.52;13.10;;;3.10;99.90;;;;;;5039450;28;20465;-65
2020/12/10 04:20:00;;;;;;;33.25;13.10;;;3.20;99.90;;;;;;5040186;28;20017;-66
2020/12/10 04:22:25;;;;;;;32.13;13.07;;;3.20;99.90;;;;;;5034502;28;20074;-66
2020/12/10 04:24:51;;;;;;;22.88;12.38;;;3.20;99.90;;;;;;5052104;28;20036;-65
2020/12/10 04:27:16;;;;;;;27.83;12.70;;;3.20;99.90;;;;;;5053010;28;20491;-66
2020/12/10 04:29:42;;;;;;;26.17;13.18;;;3.20;99.90;;;;;;5033364;28;20021;-67
2020/12/10 04:32:07;;;;;;;28.48;13.00;;;3.20;99.90;;;;;;5053595;28;20505;-65
2020/12/10 04:34:33;;;;;;;28.13;12.27;;;3.20;99.90;;;;;;5033858;28;20033;-65
2020/12/10 04:36:58;;;;;;;28.55;13.25;;;3.20;99.90;;;;;;5050910;28;20032;-65
2020/12/10 04:39:24;;;;;;;28.17;12.57;;;3.10;99.90;;;;;;5047670;28;20017;-66
2020/12/10 04:41:49;;;;;;;34.67;13.18;;;3.10;99.90;;;;;;5047049;28;20610;-65
2020/12/10 04:44:15;;;;;;;30.48;13.48;;;3.10;99.90;;;;;;5051377;28;20017;-66
2020/12/10 04:46:43;;;;;;;29.45;13.98;;;2.90;99.90;;;;;;5045884;28;20117;-65
2020/12/10 04:49:10;;;;;;;36.05;15.40;;;2.90;99.90;;;;;;5051816;28;20036;-65
2020/12/10 04:51:37;;;;;;;33.38;14.43;;;2.70;99.90;;;;;;5047538;28;20033;-66
2020/12/10 04:54:03;;;;;;;31.33;13.95;;;2.70;99.90;;;;;;5049218;28;20021;-66
2020/12/10 04:56:29;;;;;;;38.15;15.85;;;2.60;99.90;;;;;;5053811;28;20039;-65
2020/12/10 04:58:55;;;;;;;30.08;14.70;;;2.60;99.90;;;;;;5057676;28;20060;-66
2020/12/10 05:01:21;;;;;;;33.72;14.95;;;2.50;99.90;;;;;;5055886;28;20031;-66
2020/12/10 05:03:47;;;;;;;32.95;15.10;;;2.50;99.90;;;;;;5052224;28;20108;-66
2020/12/10 05:06:15;;;;;;;39.65;15.73;;;2.40;99.90;;;;;;5053160;28;20117;-65
2020/12/10 05:08:41;;;;;;;42.65;16.02;;;2.30;99.90;;;;;;5048227;28;20373;-66
2020/12/10 05:11:08;;;;;;;35.53;16.60;;;2.20;99.90;;;;;;5061592;22;20320;-59
2020/12/10 05:13:33;;;;;;;37.42;17.17;;;2.20;99.90;;;;;;5051338;28;20464;-59
2020/12/10 05:15:59;;;;;;;35.65;16.25;;;2.20;99.90;;;;;;5051554;28;20025;-60
2020/12/10 05:18:25;;;;;;;43.53;17.38;;;2.20;99.90;;;;;;5053498;28;20393;-60
2020/12/10 05:20:56;;;;;;;39.70;15.82;;;2.20;99.90;;;;;;5051538;28;20025;-61
2020/12/10 05:23:34;;;;;;;38.77;17.20;;;2.10;99.90;;;;;;5046921;28;20032;-60
2020/12/10 05:26:04;;;;;;;35.50;17.13;;;2.10;99.90;;;;;;5050898;28;20025;-60
2020/12/10 05:28:42;;;;;;;38.42;16.77;;;2.10;99.90;;;;;;5059594;28;20017;-60
2020/12/10 05:31:09;;;;;;;40.10;17.05;;;2.00;99.90;;;;;;5051345;28;20402;-60
2020/12/10 05:33:35;;;;;;;44.50;18.77;;;1.90;99.90;;;;;;5050365;28;20401;-60
2020/12/10 05:36:05;;;;;;;43.95;18.10;;;1.90;99.90;;;;;;5049754;28;20505;-60
2020/12/10 05:38:31;;;;;;;42.25;18.08;;;1.90;99.90;;;;;;5054663;28;20041;-60
2020/12/10 05:41:25;;;;;;;43.63;18.05;;;1.90;99.90;;;;;;5048631;28;20016;-60
2020/12/10 05:43:51;;;;;;;44.72;17.80;;;1.80;99.90;;;;;;5050038;28;20090;-61
2020/12/10 05:46:19;;;;;;;45.90;18.35;;;1.80;99.90;;;;;;5050088;28;20029;-58
2020/12/10 05:48:46;;;;;;;41.83;19.13;;;1.80;99.90;;;;;;5048469;28;20083;-59
2020/12/10 05:51:22;;;;;;;42.15;18.58;;;1.80;99.90;;;;;;5050468;28;20029;-59
2020/12/10 05:53:49;;;;;;;44.03;18.35;;;1.80;99.90;;;;;;5040783;28;20074;-59
2020/12/10 05:56:16;;;;;;;37.42;18.92;;;1.80;99.90;;;;;;5050852;28;20032;-61
2020/12/10 05:58:47;;;;;;;41.97;16.98;;;1.70;99.90;;;;;;5046114;28;20086;-60
2020/12/10 06:01:26;;;;;;;43.67;18.48;;;1.70;99.90;;;;;;5043135;28;20083;-61
2020/12/10 06:03:53;;;;;;;43.35;17.85;;;1.70;99.90;;;;;;5037613;28;20438;-59
2020/12/10 06:06:27;;;;;;;44.28;17.95;;;1.70;99.90;;;;;;5044579;28;20108;-60
2020/12/10 06:09:01;;;;;;;43.47;19.30;;;1.60;99.90;;;;;;5042800;28;20113;-60
2020/12/10 06:11:28;;;;;;;42.28;18.33;;;1.50;99.90;;;;;;5043819;28;20239;-60
2020/12/10 06:14:05;;;;;;;45.45;19.50;;;1.50;99.90;;;;;;5047503;28;20438;-60
2020/12/10 06:16:31;;;;;;;45.97;18.88;;;1.40;99.90;;;;;;5043310;28;20048;-60
2020/12/10 06:19:03;;;;;;;45.85;19.67;;;1.50;99.90;;;;;;5050614;28;20025;-60
2020/12/10 06:21:36;;;;;;;45.90;19.27;;;1.50;99.90;;;;;;5050702;28;20087;-59
2020/12/10 06:24:26;;;;;;;45.10;18.80;;;1.50;99.90;;;;;;5050014;28;20032;-58
2020/12/10 06:26:59;;;;;;;40.30;18.25;;;1.40;99.90;;;;;;5038490;28;20021;-60
2020/12/10 06:29:30;;;;;;;40.05;18.58;;;1.40;99.90;;;;;;5049481;28;20545;-59
2020/12/10 06:32:03;;;;;;;39.40;17.52;;;1.40;99.90;;;;;;5044620;28;20570;-61
2020/12/10 06:34:43;;;;;;;44.13;18.15;;;1.40;99.90;;;;;;5040537;28;20039;-61
2020/12/10 06:37:18;;;;;;;39.97;17.77;;;1.40;99.90;;;;;;5037731;28;20040;-59
2020/12/10 06:39:45;;;;;;;39.17;18.33;;;1.50;99.90;;;;;;5044105;28;20025;-60
2020/12/10 06:42:11;;;;;;;41.35;18.58;;;1.50;99.90;;;;;;5049199;28;20035;-60
2020/12/10 06:44:37;;;;;;;42.00;18.35;;;1.50;99.90;;;;;;5049757;28;20407;-59
2020/12/10 06:47:04;;;;;;;41.08;17.50;;;1.50;99.90;;;;;;5041343;28;20036;-60
2020/12/10 06:49:31;;;;;;;34.20;16.95;;;1.50;99.90;;;;;;5034029;28;20026;-59
2020/12/10 06:52:15;;;;;;;41.58;16.92;;;1.60;99.90;;;;;;5035937;28;20149;-59
2020/12/10 06:55:11;;;;;;;37.22;17.25;;;1.60;99.90;;;;;;5038395;28;20112;-59
2020/12/10 06:58:14;;;;;;;42.92;17.58;;;1.60;99.90;;;;;;5044750;28;20090;-60
2020/12/10 07:00:48;;;;;;;34.25;16.17;;;1.60;99.90;;;;;;5049617;28;20079;-59
2020/12/10 07:03:19;;;;;;;30.02;16.13;;;1.60;99.90;;;;;;5044853;28;20033;-59
2020/12/10 07:05:45;;;;;;;38.92;17.10;;;1.60;99.90;;;;;;5047369;28;20060;-60
2020/12/10 07:08:12;;;;;;;37.45;16.77;;;1.60;99.90;;;;;;5046633;28;20044;-60
2020/12/10 07:10:41;;;;;;;37.33;16.33;;;1.60;99.90;;;;;;5048945;28;20068;-60
2020/12/10 07:13:08;;;;;;;34.95;16.63;;;1.60;99.90;;;;;;5049063;28;20499;-59
2020/12/10 07:15:34;;;;;;;38.13;17.27;;;1.60;99.90;;;;;;5049095;28;20036;-59
2020/12/10 07:18:02;;;;;;;34.78;15.57;;;1.60;99.90;;;;;;5049948;28;20021;-60
2020/12/10 07:20:28;;;;;;;32.90;15.02;;;1.60;99.90;;;;;;5049387;28;20021;-59
2020/12/10 07:22:54;;;;;;;36.03;15.50;;;1.60;99.90;;;;;;5046206;28;20398;-59
2020/12/10 07:25:20;;;;;;;35.13;16.02;;;1.60;99.90;;;;;;5068736;28;20025;-59
2020/12/10 07:27:46;;;;;;;32.22;15.80;;;1.60;99.90;;;;;;5067507;28;20029;-58
2020/12/10 07:30:17;;;;;;;32.45;14.00;;;1.60;99.90;;;;;;5066347;28;20033;-58
2020/12/10 07:32:43;;;;;;;35.88;15.90;;;1.60;99.90;;;;;;5053295;28;21039;-60
2020/12/10 07:35:10;;;;;;;35.60;14.98;;;1.60;99.90;;;;;;5049171;28;20033;-58
2020/12/10 07:37:38;;;;;;;31.48;15.18;;;1.60;99.90;;;;;;5049893;28;20083;-59
2020/12/10 07:40:14;;;;;;;32.05;14.85;;;1.60;99.90;;;;;;5049321;28;20040;-60
2020/12/10 07:42:40;;;;;;;30.65;15.68;;;1.50;99.90;;;;;;5046785;28;20125;-59
2020/12/10 07:45:11;;;;;;;33.70;15.00;;;1.50;99.90;;;;;;5049939;28;20219;-60
2020/12/10 07:47:37;;;;;;;33.33;16.20;;;1.40;99.90;;;;;;5049870;28;20033;-59
2020/12/10 07:50:21;;;;;;;33.95;16.00;;;1.40;99.90;;;;;;5043735;28;20372;-59
2020/12/10 07:52:50;;;;;;;35.58;15.50;;;1.30;99.90;;;;;;5044600;28;20390;-58
2020/12/10 07:55:23;;;;;;;36.67;15.48;;;1.30;99.90;;;;;;5047791;28;20108;-59
2020/12/10 07:58:01;;;;;;;35.40;15.23;;;1.30;99.90;;;;;;5050395;28;20021;-60
2020/12/10 08:00:30;;;;;;;31.27;14.98;;;1.30;99.90;;;;;;5049803;28;20078;-61
2020/12/10 08:02:56;;;;;;;38.35;16.40;;;1.30;99.90;;;;;;5046444;28;20017;-59
2020/12/10 08:05:22;;;;;;;35.78;15.80;;;1.30;99.90;;;;;;5047175;28;20021;-58
2020/12/10 08:07:52;;;;;;;37.65;15.75;;;1.30;99.90;;;;;;5049840;28;20025;-58
2020/12/10 08:10:26;;;;;;;36.53;16.05;;;1.30;99.90;;;;;;5046691;28;20482;-58
2020/12/10 08:13:07;;;;;;;32.80;14.18;;;1.30;99.90;;;;;;5047956;28;20053;-59
2020/12/10 08:15:32;;;;;;;36.03;15.45;;;1.30;99.90;;;;;;5050139;28;20047;-61
2020/12/10 08:18:05;;;;;;;29.73;15.20;;;1.30;99.90;;;;;;5052553;28;20053;-58
2020/12/10 08:20:41;;;;;;;30.15;14.57;;;1.30;99.90;;;;;;5050832;28;20045;-61
2020/12/10 08:23:07;;;;;;;32.08;15.35;;;1.20;99.90;;;;;;5050105;28;20068;-58
2020/12/10 08:25:33;;;;;;;36.40;16.05;;;1.20;99.90;;;;;;5035105;28;20590;-59
2020/12/10 08:27:58;;;;;;;28.77;14.93;;;1.10;99.90;;;;;;5035653;28;20029;-58
2020/12/10 08:30:24;;;;;;;33.17;16.25;;;1.10;99.90;;;;;;5036338;28;20044;-58
2020/12/10 08:32:51;;;;;;;34.17;15.95;;;1.20;99.90;;;;;;5043025;28;20041;-59
2020/12/10 08:35:18;;;;;;;35.75;15.85;;;1.20;99.90;;;;;;5043993;28;20506;-58
2020/12/10 08:37:44;;;;;;;31.05;14.93;;;1.20;99.90;;;;;;5039334;28;20014;-59
2020/12/10 08:40:10;;;;;;;30.15;14.40;;;1.20;99.90;;;;;;5043975;28;20112;-59
2020/12/10 08:42:36;;;;;;;34.65;14.93;;;1.30;99.90;;;;;;5037953;28;20028;-58
2020/12/10 08:45:03;;;;;;;33.28;15.65;;;1.40;99.90;;;;;;5036968;28;20029;-58
2020/12/10 08:47:31;;;;;;;29.92;15.23;;;1.30;99.90;;;;;;5034530;28;20029;-62
2020/12/10 08:50:05;;;;;;;30.98;15.57;;;1.20;99.90;;;;;;5033918;28;20021;-60
2020/12/10 08:52:30;;;;;;;35.78;15.48;;;1.20;99.90;;;;;;5032663;28;20391;-59
2020/12/10 08:54:56;;;;;;;30.52;14.43;;;1.30;99.90;;;;;;5034509;28;20037;-59
2020/12/10 08:57:21;;;;;;;33.55;15.20;;;1.40;99.90;;;;;;5049225;28;20037;-59
2020/12/10 08:59:48;;;;;;;32.47;16.45;;;1.40;99.90;;;;;;5050021;28;20037;-59
2020/12/10 09:02:13;;;;;;;34.25;15.15;;;1.40;99.90;;;;;;5049948;28;20495;-60
2020/12/10 09:04:39;;;;;;;42.47;15.43;;;1.40;99.90;;;;;;5045607;28;20125;-59
2020/12/10 09:07:04;;;;;;;35.45;14.95;;;1.40;99.90;;;;;;5045585;28;20146;-59
2020/12/10 09:09:30;;;;;;;31.42;14.25;;;1.40;99.90;;;;;;5048049;28;20056;-59
2020/12/10 09:11:55;;;;;;;30.70;15.07;;;1.40;99.90;;;;;;5048698;28;20064;-58
2020/12/10 09:14:21;;;;;;;31.40;15.55;;;1.50;99.90;;;;;;5046811;28;20036;-59
2020/12/10 09:16:46;;;;;;;31.17;14.73;;;1.50;99.90;;;;;;5049008;28;20086;-59
2020/12/10 09:19:12;;;;;;;31.02;14.73;;;1.50;99.90;;;;;;5051597;28;20490;-60
2020/12/10 09:21:37;;;;;;;36.22;16.08;;;1.60;99.90;;;;;;5040899;28;20052;-59
2020/12/10 09:24:03;;;;;;;33.65;14.35;;;1.60;99.90;;;;;;5048034;28;20099;-60
2020/12/10 09:26:29;;;;;;;29.00;14.77;;;1.70;99.90;;;;;;5051941;28;20108;-61
2020/12/10 09:28:54;;;;;;;31.10;14.70;;;1.70;99.90;;;;;;5048128;28;20064;-59
2020/12/10 09:31:20;;;;;;;24.67;12.82;;;1.60;99.90;;;;;;5050598;28;20070;-59
2020/12/10 09:33:45;;;;;;;27.08;13.73;;;1.70;99.90;;;;;;5050415;28;20017;-58
2020/12/10 09:36:11;;;;;;;29.30;13.73;;;1.70;99.90;;;;;;5054658;28;20503;-64
2020/12/10 09:38:40;;;;;;;29.17;13.85;;;1.70;99.90;;;;;;5052968;28;20406;-60
2020/12/10 09:41:06;;;;;;;28.02;13.55;;;1.70;99.90;;;;;;5042043;28;20086;-59
2020/12/10 09:43:32;;;;;;;28.13;13.40;;;1.80;99.90;;;;;;5051357;28;20116;-59
2020/12/10 09:46:03;;;;;;;31.33;14.43;;;1.80;99.90;;;;;;5048334;28;20112;-59
2020/12/10 09:48:29;;;;;;;29.10;13.45;;;1.90;99.90;;;;;;5048585;28;20021;-59
2020/12/10 09:50:54;;;;;;;27.83;13.93;;;1.90;99.90;;;;;;5048124;28;20032;-59
2020/12/10 09:53:31;;;;;;;27.10;13.43;;;2.00;99.90;;;;;;5041533;28;20017;-59
2020/12/10 09:58:22;;;;;;;27.58;12.82;;;2.10;99.90;;;;;;5049641;28;20143;-59
2020/12/10 10:00:49;;;;;;;27.73;13.00;;;2.10;99.90;;;;;;5038993;28;20018;-60
2020/12/10 10:03:20;;;;;;;25.60;12.95;;;2.20;99.90;;;;;;5047346;28;20032;-60
2020/12/10 10:05:46;;;;;;;22.60;12.70;;;2.20;99.90;;;;;;5051998;28;20021;-60
2020/12/10 10:08:12;;;;;;;26.67;11.90;;;2.20;99.90;;;;;;5047155;28;20027;-59
2020/12/10 10:10:37;;;;;;;24.90;12.18;;;2.20;99.90;;;;;;5053047;28;20021;-59
2020/12/10 10:13:03;;;;;;;24.00;12.38;;;2.20;99.90;;;;;;5046002;28;20047;-59
2020/12/10 10:15:29;;;;;;;32.35;12.70;;;2.30;99.90;;;;;;5051298;28;20029;-59
2020/12/10 10:17:55;;;;;;;23.30;11.88;;;2.40;99.90;;;;;;5048010;28;20040;-59
2020/12/10 10:20:20;;;;;;;21.45;10.73;;;2.40;99.90;;;;;;5056922;28;20021;-60
2020/12/10 10:22:46;;;;;;;28.05;13.13;;;2.50;99.90;;;;;;5050224;28;20017;-62
2020/12/10 10:25:12;;;;;;;25.92;11.65;;;2.50;99.90;;;;;;5052416;28;20478;-58
2020/12/10 10:27:37;;;;;;;26.00;12.07;;;2.60;99.90;;;;;;5046820;28;20036;-59
2020/12/10 10:30:07;;;;;;;25.25;12.20;;;2.50;99.90;;;;;;5049668;28;20021;-59
2020/12/10 10:32:34;;;;;;;29.67;11.35;;;2.60;99.90;;;;;;5050594;28;20020;-58
2020/12/10 10:34:59;;;;;;;21.38;11.98;;;2.70;99.90;;;;;;5048195;28;20424;-60
2020/12/10 10:37:25;;;;;;;26.55;11.82;;;2.80;99.90;;;;;;5050357;28;20029;-60
2020/12/10 10:39:51;;;;;;;26.92;12.77;;;2.80;99.90;;;;;;5047820;28;20060;-58
2020/12/10 10:42:16;;;;;;;29.70;12.23;;;2.80;99.90;;;;;;5060691;28;20055;-60
2020/12/10 10:44:42;;;;;;;22.58;12.20;;;2.70;99.90;;;;;;5070774;28;20031;-59
2020/12/10 10:47:07;;;;;;;28.73;12.60;;;2.80;99.90;;;;;;5068607;28;20028;-57
2020/12/10 10:49:33;;;;;;;23.80;12.30;;;2.70;99.90;;;;;;5054754;28;20025;-59
2020/12/10 10:51:58;;;;;;;20.75;11.18;;;2.70;99.90;;;;;;5050798;28;20103;-59
2020/12/10 10:54:24;;;;;;;23.40;12.00;;;2.80;99.90;;;;;;5044843;28;20025;-59
2020/12/10 10:56:49;;;;;;;20.45;11.45;;;2.90;99.90;;;;;;5046376;28;20112;-58
2020/12/10 10:59:15;;;;;;;24.85;12.55;;;2.80;99.90;;;;;;5051522;28;20540;-60
2020/12/10 11:01:41;;;;;;;23.75;12.18;;;2.80;99.90;;;;;;5047967;28;20443;-60
2020/12/10 11:04:06;;;;;;;26.48;12.70;;;2.80;99.90;;;;;;5048422;28;20036;-61
2020/12/10 11:06:32;;;;;;;23.80;12.40;;;2.80;99.90;;;;;;5042667;28;20075;-58
2020/12/10 11:08:57;;;;;;;26.40;12.60;;;2.90;99.90;;;;;;5047395;28;20035;-59
2020/12/10 11:11:23;;;;;;;23.70;12.00;;;3.00;99.90;;;;;;5069904;23;20067;-65
2020/12/10 11:13:49;;;;;;;25.67;11.95;;;2.90;99.90;;;;;;5054583;28;20033;-65
2020/12/10 11:16:15;;;;;;;23.13;12.60;;;2.90;99.90;;;;;;5053844;28;20549;-66
2020/12/10 11:18:43;;;;;;;27.55;13.50;;;2.90;99.90;;;;;;5057989;28;20029;-65
2020/12/10 11:21:08;;;;;;;23.55;12.30;;;2.90;99.90;;;;;;5054824;28;20022;-66
2020/12/10 11:23:34;;;;;;;23.50;11.80;;;2.90;99.90;;;;;;5059918;28;20466;-65
2020/12/10 11:25:59;;;;;;;24.17;12.02;;;3.00;99.90;;;;;;5061159;28;20096;-65
2020/12/10 11:28:25;;;;;;;23.98;12.98;;;3.10;99.90;;;;;;5059520;28;20483;-66
2020/12/10 11:30:52;;;;;;;23.90;13.40;;;3.10;99.90;;;;;;5039407;28;20048;-66
2020/12/10 11:33:17;;;;;;;27.60;13.13;;;3.10;99.90;;;;;;5061961;28;20116;-66
2020/12/10 11:35:43;;;;;;;23.63;12.80;;;3.20;99.90;;;;;;5060016;28;20048;-65
2020/12/10 11:38:09;;;;;;;24.23;12.65;;;3.40;99.90;;;;;;5069668;28;20033;-66
2020/12/10 11:40:34;;;;;;;24.83;13.18;;;3.40;99.90;;;;;;5054697;28;20029;-66
2020/12/10 11:43:01;;;;;;;23.00;13.02;;;3.40;99.90;;;;;;5053040;28;20025;-64
2020/12/10 11:45:26;;;;;;;23.52;12.77;;;3.50;99.90;;;;;;5054990;28;20095;-66
2020/12/10 11:47:52;;;;;;;24.02;12.77;;;3.70;99.90;;;;;;5057365;28;20033;-65
2020/12/10 11:50:21;;;;;;;26.90;14.02;;;3.90;99.90;;;;;;5058157;28;20040;-67
2020/12/10 11:52:47;;;;;;;20.50;11.73;;;4.30;99.90;;;;;;5056476;28;20024;-67
2020/12/10 11:55:13;;;;;;;21.83;12.88;;;4.40;99.90;;;;;;5057997;28;20048;-67
2020/12/10 11:57:39;;;;;;;20.58;11.35;;;4.40;99.90;;;;;;5057478;28;20021;-67
2020/12/10 12:00:07;;;;;;;22.33;12.68;;;4.30;99.90;;;;;;5057601;28;20029;-66
2020/12/10 12:02:32;;;;;;;24.17;12.02;;;4.30;99.90;;;;;;5059129;28;20395;-66
2020/12/10 12:04:58;;;;;;;21.10;12.40;;;4.50;99.90;;;;;;5058546;28;20033;-67
2020/12/10 12:07:23;;;;;;;23.77;13.07;;;4.60;99.90;;;;;;5057879;28;20032;-66
2020/12/10 12:09:49;;;;;;;22.77;13.32;;;4.50;99.90;;;;;;5057980;28;20360;-66
2020/12/10 12:12:14;;;;;;;25.83;12.93;;;4.50;99.90;;;;;;5059920;28;20033;-65
2020/12/10 12:14:40;;;;;;;23.90;12.48;;;4.40;99.90;;;;;;5060974;28;20131;-65
2020/12/10 12:17:06;;;;;;;26.83;13.55;;;4.40;99.90;;;;;;5060740;28;20139;-66
2020/12/10 12:19:32;;;;;;;20.08;11.35;;;4.40;99.90;;;;;;5057986;28;20120;-66
2020/12/10 12:22:02;;;;;;;27.27;13.18;;;4.40;99.90;;;;;;5061731;28;20033;-68
2020/12/10 12:24:27;;;;;;;22.92;12.25;;;4.60;99.90;;;;;;5059888;28;20029;-66
2020/12/10 12:26:53;;;;;;;19.40;11.60;;;4.70;99.90;;;;;;5059357;28;20359;-66
2020/12/10 12:29:18;;;;;;;20.60;12.40;;;5.10;99.90;;;;;;5058621;28;20017;-67
2020/12/10 12:31:44;;;;;;;22.98;12.65;;;5.20;99.90;;;;;;5057876;28;20025;-66
2020/12/10 12:34:10;;;;;;;22.00;11.73;;;5.20;99.90;;;;;;5057892;28;20025;-67
2020/12/10 12:36:35;;;;;;;26.58;13.63;;;5.60;99.90;;;;;;5058151;28;20106;-68
2020/12/10 12:39:03;;;;;;;20.80;11.63;;;5.70;99.90;;;;;;5057253;28;20495;-67